Time;durP1;ratioP1;P1;durP2;ratioP2;P2;SDS_P1;SDS_P2;PMS_P1;PMS_P2;Temp;Humidity;BMP_temperature;BMP_pressure;BME280_temperature;BME280_humidity;BME280_pressure;Samples;Min_cycle;Max_cycle;Signal;HPM_P1;HPM_P2
2022/01/24 00:01:05;;;;;;;110.15;46.88;;;;;;;-3.07;76.98;102567.27;1670119;84;26686;-76
2022/01/24 00:03:32;;;;;;;99.17;45.33;;;;;;;-3.03;77.13;102577.19;1670068;85;26535;-75
2022/01/24 00:05:58;;;;;;;107.47;47.43;;;;;;;-3.02;77.27;102588.09;1670679;85;27430;-75
2022/01/24 00:08:25;;;;;;;102.65;45.80;;;;;;;-3.01;77.35;102589.34;1670022;85;25787;-76
2022/01/24 00:10:53;;;;;;;105.15;46.13;;;;;;;-2.99;77.36;102584.06;1670367;84;25819;-75
2022/01/24 00:14:05;;;;;;;108.32;46.92;;;;;;;-3.00;77.43;102587.58;1670142;85;25811;-76
2022/01/24 00:16:00;;;;;;;;;;;;;;;-3.02;77.67;102585.02;1668767;85;25963;-75
2022/01/24 00:18:31;;;;;;;103.45;45.55;;;;;;;-2.98;77.68;102598.86;1669175;85;27467;-76
2022/01/24 00:26:46;;;;;;;99.80;46.30;;;;;;;-2.95;77.92;102590.43;1670602;85;26445;-76
2022/01/24 00:29:12;;;;;;;110.80;49.20;;;;;;;-2.94;78.09;102592.61;1670026;84;25731;-76
2022/01/24 00:31:38;;;;;;;106.43;47.73;;;;;;;-2.90;78.21;102595.08;1670327;85;27626;-76
2022/01/24 00:34:04;;;;;;;98.27;45.30;;;;;;;-2.86;78.24;102600.61;1670108;84;25741;-76
2022/01/24 00:36:31;;;;;;;103.80;44.10;;;;;;;-2.83;78.21;102595.28;1670234;85;25859;-76
2022/01/24 00:38:57;;;;;;;108.85;46.77;;;;;;;-2.79;78.26;102594.70;1670409;84;25847;-76
2022/01/24 00:41:24;;;;;;;102.10;46.10;;;;;;;-2.76;78.42;102592.81;1670086;84;25698;-76
2022/01/24 00:46:41;;;;;;;91.63;37.78;;;;;;;-2.70;78.49;102586.52;1670385;85;26011;-76
2022/01/24 00:57:04;;;;;;;79.07;33.10;;;;;;;-2.66;78.00;102561.89;1670233;85;28261;-76
2022/01/24 00:59:30;;;;;;;81.37;34.10;;;;;;;-2.68;77.92;102544.91;1670345;84;25950;-75
2022/01/24 01:01:56;;;;;;;83.65;35.58;;;;;;;-2.67;77.90;102555.78;1670136;85;26085;-76
2022/01/24 01:04:28;;;;;;;69.50;34.90;;;;;;;-2.68;77.78;102551.91;1670488;84;26571;-75
2022/01/24 01:06:51;;;;;;;75.28;33.38;;;;;;;-2.66;77.73;102559.27;1669385;85;26329;-76
2022/01/24 01:20:22;;;;;;;65.22;31.12;;;;;;;-2.65;77.98;102552.65;1670252;84;26518;-76
2022/01/24 01:22:44;;;;;;;71.12;31.85;;;;;;;-2.63;77.93;102550.82;1669475;85;28305;-76
2022/01/24 01:25:11;;;;;;;63.48;29.32;;;;;;;-2.63;77.75;102548.20;1670063;85;26153;-76
2022/01/24 01:27:42;;;;;;;66.10;29.72;;;;;;;-2.63;77.71;102553.92;1670201;85;26471;-75
2022/01/24 01:30:15;;;;;;;60.73;29.92;;;;;;;-2.69;77.76;102537.07;1669798;84;26453;-76
2022/01/24 01:32:54;;;;;;;71.75;30.80;;;;;;;-2.64;77.82;102549.13;1668799;85;25939;-75
2022/01/24 01:35:30;;;;;;;59.30;28.35;;;;;;;-2.61;77.89;102555.55;1668313;85;27533;-75
2022/01/24 01:56:41;;;;;;;61.20;27.90;;;;;;;-2.46;78.06;102572.05;1670550;85;25869;-76
2022/01/24 01:59:08;;;;;;;61.20;28.00;;;;;;;-2.42;77.83;102572.82;1670127;85;25942;-76
2022/01/24 02:01:34;;;;;;;61.42;27.52;;;;;;;-2.42;77.83;102572.82;1670327;84;27453;-76
2022/01/24 02:04:03;;;;;;;62.03;28.00;;;;;;;-2.45;77.93;102560.66;1670103;85;25747;-76
2022/01/24 02:06:30;;;;;;;57.50;27.17;;;;;;;-2.36;78.07;102567.34;1670251;85;25765;-75
2022/01/24 02:09:11;;;;;;;58.23;25.95;;;;;;;-2.36;78.07;102567.34;1670508;84;26594;-76
2022/01/24 02:11:37;;;;;;;60.58;26.93;;;;;;;-2.32;78.12;102566.77;1670402;85;25970;-76
2022/01/24 02:14:10;;;;;;;55.17;26.20;;;;;;;-2.30;78.01;102568.42;1670244;85;27477;-76
2022/01/24 02:17:11;;;;;;;61.80;26.33;;;;;;;-2.31;78.06;102565.86;1669971;85;25722;-76
2022/01/24 02:24:39;;;;;;;49.20;22.85;;;;;;;-2.25;77.99;102581.38;1670300;85;25814;-76
2022/01/24 02:27:00;;;;;;;55.52;24.82;;;;;;;-2.22;77.77;102589.16;1669364;85;27641;-76
2022/01/24 02:31:56;;;;;;;51.10;22.75;;;;;;;-2.21;77.93;102588.22;1670160;85;25792;-76
2022/01/24 02:34:33;;;;;;;53.48;22.75;;;;;;;-2.18;77.61;102587.64;1670540;85;26539;-76
2022/01/24 02:37:04;;;;;;;54.13;24.20;;;;;;;-2.18;77.61;102587.64;1668971;85;25820;-76
2022/01/24 02:53:06;;;;;;;44.08;21.52;;;;;;;-2.09;78.04;102555.80;1670466;85;27451;-76
2022/01/24 02:55:37;;;;;;;46.20;22.65;;;;;;;-2.02;77.99;102570.86;1670504;85;25888;-76
2022/01/24 02:58:04;;;;;;;49.75;22.27;;;;;;;-2.02;77.94;102567.78;1670564;85;26411;-75
2022/01/24 03:00:32;;;;;;;45.48;22.55;;;;;;;-2.00;77.89;102567.72;1670221;83;26510;-76
2022/01/24 03:02:58;;;;;;;47.03;20.88;;;;;;;-1.98;77.99;102561.95;1670311;85;26547;-76
2022/01/24 03:05:25;;;;;;;43.33;20.97;;;;;;;-1.96;78.06;102570.17;1670488;84;27418;-76
2022/01/24 03:07:51;;;;;;;49.13;21.17;;;;;;;-1.94;78.06;102572.73;1670428;84;25995;-75
2022/01/24 03:10:27;;;;;;;43.92;20.37;;;;;;;-1.91;78.09;102579.19;1670218;84;25313;-76
2022/01/24 03:15:40;;;;;;;47.85;21.30;;;;;;;-1.86;78.13;102578.56;1670439;85;25864;-76
2022/01/24 03:18:07;;;;;;;42.60;20.75;;;;;;;-1.84;78.15;102566.23;1670457;84;27417;-76
2022/01/24 03:20:34;;;;;;;44.15;21.77;;;;;;;-1.88;78.18;102562.02;1670388;84;25862;-75
2022/01/24 03:23:00;;;;;;;44.00;21.57;;;;;;;-1.79;78.27;102568.19;1670557;85;26585;-75
2022/01/24 03:25:28;;;;;;;44.63;20.92;;;;;;;-1.78;78.12;102576.04;1670306;85;25836;-76
2022/01/24 03:27:55;;;;;;;43.63;20.57;;;;;;;-1.76;78.00;102573.34;1670564;84;25903;-76
2022/01/24 03:30:23;;;;;;;41.42;20.37;;;;;;;-1.81;77.89;102565.64;1670110;84;27470;-75
2022/01/24 03:32:49;;;;;;;44.20;22.13;;;;;;;-1.77;78.05;102573.80;1670196;85;26312;-76
2022/01/24 03:35:16;;;;;;;43.38;20.48;;;;;;;-1.76;77.92;102572.03;1670258;85;25920;-76
2022/01/24 03:37:43;;;;;;;38.48;19.10;;;;;;;-1.75;78.00;102579.84;1670931;85;25832;-76
2022/01/24 03:40:10;;;;;;;35.85;18.70;;;;;;;-1.74;77.61;102578.08;1670101;84;25958;-76
2022/01/24 03:42:37;;;;;;;40.08;19.20;;;;;;;-1.74;77.81;102580.70;1670087;84;27460;-76
2022/01/24 03:45:07;;;;;;;42.67;19.73;;;;;;;-1.73;77.90;102576.69;1670212;85;25817;-75
2022/01/24 03:50:08;;;;;;;36.28;17.92;;;;;;;-1.73;77.94;102564.88;1670439;84;25821;-76
2022/01/24 03:52:34;;;;;;;34.50;18.57;;;;;;;-1.73;77.94;102564.88;1670148;85;25965;-76
2022/01/24 03:55:04;;;;;;;36.20;17.75;;;;;;;-1.65;77.97;102569.36;1670532;85;27453;-76
2022/01/24 03:57:30;;;;;;;35.85;17.65;;;;;;;-1.70;77.82;102557.33;1670339;85;26353;-75
2022/01/24 03:59:56;;;;;;;35.17;16.52;;;;;;;-1.66;77.70;102562.86;1670345;84;25839;-75
2022/01/24 04:02:27;;;;;;;33.63;18.23;;;;;;;-1.65;77.82;102554.08;1670072;85;26550;-76
2022/01/24 04:04:53;;;;;;;;;;;;;;;-1.65;77.75;102551.45;1672554;85;25872;-75
2022/01/24 04:07:19;;;;;;;33.55;15.40;;;;;;;-1.67;77.74;102551.48;1670044;85;27324;-75
2022/01/24 04:09:46;;;;;;;34.38;17.30;;;;;;;-1.68;78.01;102552.42;1670428;84;25600;-76
2022/01/24 04:12:14;;;;;;;31.45;15.95;;;;;;;-1.65;77.94;102550.96;1670522;85;25841;-76
2022/01/24 04:15:07;;;;;;;34.83;15.90;;;;;;;-1.64;77.93;102558.40;1670240;85;26574;-75
2022/01/24 04:22:37;;;;;;;;;;;;;;;-1.61;77.98;102556.97;1672941;85;26591;-75
2022/01/24 04:25:03;;;;;;;29.15;15.80;;;;;;;-1.63;78.06;102558.81;1670251;84;25703;-76
2022/01/24 04:27:29;;;;;;;32.20;16.82;;;;;;;-1.61;78.17;102564.86;1670542;85;25846;-76
2022/01/24 04:29:56;;;;;;;37.03;17.00;;;;;;;-1.60;78.03;102563.92;1670293;84;25371;-76
2022/01/24 04:32:23;;;;;;;32.63;16.05;;;;;;;-1.57;77.91;102561.19;1670437;85;27552;-76
2022/01/24 04:34:51;;;;;;;34.15;17.60;;;;;;;-1.54;77.85;102562.84;1670180;85;25920;-75
2022/01/24 04:37:17;;;;;;;33.58;16.85;;;;;;;-1.57;77.59;102556.80;1670692;84;25747;-76
2022/01/24 04:39:44;;;;;;;36.40;16.77;;;;;;;-1.57;77.70;102559.42;1670166;84;26044;-75
2022/01/24 04:42:21;;;;;;;30.50;15.40;;;;;;;-1.56;77.83;102562.42;1670340;84;25958;-75
2022/01/24 04:45:11;;;;;;;35.40;17.17;;;;;;;-1.56;77.83;102570.31;1669204;85;28071;-75
2022/01/24 04:47:31;;;;;;;31.23;16.70;;;;;;;-1.55;77.81;102571.17;1667639;85;26087;-76
2022/01/24 04:55:04;;;;;;;39.30;18.52;;;;;;;-1.50;77.89;102563.11;1670348;85;25741;-76
2022/01/24 04:57:30;;;;;;;34.63;19.27;;;;;;;-1.47;78.10;102561.65;1670378;85;28306;-76
2022/01/24 05:00:00;;;;;;;34.53;17.17;;;;;;;-1.47;78.10;102561.65;1669883;84;25912;-76
2022/01/24 05:02:27;;;;;;;30.72;16.20;;;;;;;-1.49;78.10;102564.35;1670188;84;25869;-75
2022/01/24 05:04:56;;;;;;;36.38;17.23;;;;;;;-1.46;77.97;102566.87;1670212;85;25837;-75
2022/01/24 05:07:22;;;;;;;40.75;18.77;;;;;;;-1.46;77.93;102573.89;1670663;85;25785;-75
2022/01/24 05:10:01;;;;;;;32.38;17.20;;;;;;;-1.45;77.93;102571.19;1670383;84;27515;-76
2022/01/24 05:23:35;;;;;;;37.20;17.85;;;;;;;-1.44;78.01;102576.86;1670021;85;27455;-76
2022/01/24 05:26:04;;;;;;;40.73;16.82;;;;;;;-1.44;78.04;102570.28;1670173;84;25880;-76
2022/01/24 05:28:32;;;;;;;38.17;18.75;;;;;;;-1.45;77.97;102565.93;1670283;85;25789;-75
2022/01/24 05:30:59;;;;;;;49.95;24.25;;;;;;;-1.46;78.07;102571.27;1670167;84;26065;-75
2022/01/24 05:33:27;;;;;;;44.70;21.35;;;;;;;-1.42;78.09;102568.90;1670089;85;26596;-76
2022/01/24 05:35:53;;;;;;;43.50;19.80;;;;;;;-1.42;78.09;102568.90;1670483;85;27465;-76
2022/01/24 05:38:22;;;;;;;41.60;19.48;;;;;;;-1.41;78.13;102574.57;1670257;85;25800;-78
2022/01/24 05:40:49;;;;;;;39.35;18.95;;;;;;;-1.41;78.13;102579.83;1668183;84;25912;-76
2022/01/24 05:43:15;;;;;;;43.25;20.85;;;;;;;-1.41;78.18;102580.66;1669513;85;26507;-76
2022/01/24 05:45:41;;;;;;;45.67;22.35;;;;;;;-1.40;78.23;102585.46;1670352;85;26637;-75
2022/01/24 05:48:08;;;;;;;46.95;21.05;;;;;;;-1.39;78.28;102590.64;1670213;85;27458;-75
2022/01/24 05:50:34;;;;;;;49.65;21.80;;;;;;;-1.41;78.17;102587.23;1666378;84;26456;-76
2022/01/24 05:53:01;;;;;;;43.33;19.77;;;;;;;-1.41;78.29;102587.71;1656446;85;26014;-76
2022/01/24 05:55:27;;;;;;;50.92;21.73;;;;;;;-1.40;78.36;102589.41;1657598;85;25768;-76
2022/01/24 05:57:54;;;;;;;48.60;21.97;;;;;;;-1.38;78.45;102589.75;1655014;85;26187;-76
2022/01/24 06:00:22;;;;;;;45.43;21.85;;;;;;;-1.35;78.52;102587.00;1670054;84;27448;-76
2022/01/24 06:02:51;;;;;;;49.30;22.20;;;;;;;-1.34;78.44;102593.09;1670255;85;25784;-76
2022/01/24 06:05:17;;;;;;;50.75;21.80;;;;;;;-1.33;78.50;102596.13;1670494;85;26018;-76
2022/01/24 06:07:43;;;;;;;51.30;22.25;;;;;;;-1.35;78.48;102601.91;1670220;85;26511;-76
2022/01/24 06:10:10;;;;;;;51.85;22.13;;;;;;;-1.35;78.48;102601.91;1670354;84;25985;-76
2022/01/24 06:12:36;;;;;;;45.70;20.75;;;;;;;-1.34;78.41;102592.64;1670076;85;27629;-76
2022/01/24 06:15:04;;;;;;;45.28;21.87;;;;;;;-1.33;78.66;102595.69;1670767;85;25965;-76
2022/01/24 06:17:30;;;;;;;45.60;23.07;;;;;;;-1.35;78.62;102592.71;1670539;84;25745;-75
2022/01/24 06:19:57;;;;;;;47.05;22.87;;;;;;;-1.34;78.69;102595.72;1670259;84;25836;-76
2022/01/24 06:22:23;;;;;;;50.40;22.70;;;;;;;-1.34;78.72;102597.03;1670350;85;25953;-76
2022/01/24 06:24:49;;;;;;;49.83;22.65;;;;;;;-1.34;78.64;102593.95;1670309;85;28261;-75
2022/01/24 06:27:15;;;;;;;45.45;21.50;;;;;;;-1.35;78.69;102590.95;1670245;84;25840;-76
2022/01/24 06:29:41;;;;;;;54.88;23.92;;;;;;;-1.33;78.68;102588.25;1669969;84;26589;-75
2022/01/24 06:32:08;;;;;;;49.35;23.30;;;;;;;-1.35;78.72;102576.94;1670321;85;26599;-76
2022/01/24 06:34:36;;;;;;;48.50;21.73;;;;;;;-1.35;78.80;102581.75;1670488;85;25876;-76
2022/01/24 06:37:04;;;;;;;54.73;24.82;;;;;;;-1.33;78.79;102587.80;1670512;85;28474;-76
2022/01/24 06:39:30;;;;;;;44.20;20.80;;;;;;;-1.29;78.88;102583.26;1670455;84;25830;-75
2022/01/24 06:44:35;;;;;;;56.58;23.87;;;;;;;-1.30;78.87;102585.47;1670405;85;25763;-76
2022/01/24 06:47:02;;;;;;;53.80;24.00;;;;;;;-1.30;78.90;102588.97;1670640;85;25903;-75
2022/01/24 06:49:28;;;;;;;52.85;23.67;;;;;;;-1.28;79.01;102592.39;1670149;84;27575;-76
2022/01/24 06:51:54;;;;;;;55.83;25.08;;;;;;;-1.27;78.95;102588.86;1670085;84;25907;-76
2022/01/24 06:54:20;;;;;;;50.23;24.27;;;;;;;-1.25;78.93;102594.04;1670738;85;25798;-76
2022/01/24 06:56:47;;;;;;;53.17;24.85;;;;;;;-1.23;78.99;102589.13;1670447;84;26563;-75
2022/01/24 06:59:13;;;;;;;51.37;24.92;;;;;;;-1.22;78.94;102596.07;1670086;84;25771;-76
2022/01/24 07:01:39;;;;;;;58.68;25.27;;;;;;;-1.21;79.01;102592.99;1669947;85;27536;-76
2022/01/24 07:04:07;;;;;;;51.90;23.52;;;;;;;-1.19;79.02;102592.47;1669658;84;26258;-76
2022/01/24 07:06:33;;;;;;;51.55;23.25;;;;;;;-1.18;78.82;102601.62;1670153;85;25871;-76
2022/01/24 07:09:02;;;;;;;52.13;24.00;;;;;;;-1.17;78.78;102602.01;1670555;84;26641;-76
2022/01/24 07:11:28;;;;;;;51.00;23.50;;;;;;;-1.20;78.94;102588.14;1670207;84;26421;-76
2022/01/24 07:13:54;;;;;;;46.80;24.12;;;;;;;-1.16;78.86;102604.19;1670241;85;27448;-76
2022/01/24 07:16:20;;;;;;;51.45;25.00;;;;;;;-1.15;78.93;102605.43;1670172;85;26127;-75
2022/01/24 07:18:58;;;;;;;61.73;27.87;;;;;;;-1.14;78.62;102599.72;1670314;85;25554;-76
2022/01/24 07:21:25;;;;;;;54.40;23.90;;;;;;;-1.14;78.62;102599.72;1670165;84;25788;-75
2022/01/24 07:23:52;;;;;;;54.85;23.73;;;;;;;-1.09;78.80;102610.42;1670342;85;25931;-76
2022/01/24 07:26:18;;;;;;;57.33;26.65;;;;;;;-1.09;78.80;102610.42;1670462;85;27467;-76
2022/01/24 07:28:44;;;;;;;52.78;24.27;;;;;;;-1.06;78.93;102615.58;1670241;85;26490;-75
2022/01/24 07:31:12;;;;;;;55.78;24.50;;;;;;;-1.01;78.95;102618.88;1669930;84;25361;-76
2022/01/24 07:33:40;;;;;;;52.48;24.12;;;;;;;-0.98;78.87;102619.19;1670066;85;25833;-76
2022/01/24 07:36:06;;;;;;;54.85;24.63;;;;;;;-0.97;78.80;102623.09;1670741;85;25878;-76
2022/01/24 07:38:32;;;;;;;53.87;24.32;;;;;;;-0.94;78.66;102623.43;1670461;85;27639;-76
2022/01/24 07:41:00;;;;;;;53.75;25.05;;;;;;;-0.92;78.66;102622.90;1670491;84;25923;-75
2022/01/24 07:43:27;;;;;;;54.58;24.67;;;;;;;-0.89;78.60;102633.28;1669722;85;26010;-76
2022/01/24 07:45:54;;;;;;;54.58;25.75;;;;;;;-0.86;78.60;102630.08;1670997;85;25990;-76
2022/01/24 07:48:21;;;;;;;58.73;25.05;;;;;;;-0.85;78.50;102627.83;1670565;85;25773;-76
2022/01/24 07:50:51;;;;;;;53.83;24.00;;;;;;;-0.82;78.61;102636.92;1670537;84;27427;-76
2022/01/24 07:53:18;;;;;;;51.30;25.92;;;;;;;-0.79;78.56;102633.27;1670652;85;26446;-75
2022/01/24 07:55:44;;;;;;;55.28;24.67;;;;;;;-0.75;78.51;102628.30;1670579;84;25804;-75
2022/01/24 07:58:11;;;;;;;61.02;26.05;;;;;;;-0.74;78.37;102622.11;1670278;85;25928;-76
2022/01/24 08:00:38;;;;;;;55.75;24.90;;;;;;;-0.72;78.33;102624.66;1670257;84;25785;-76
2022/01/24 08:03:06;;;;;;;62.38;27.02;;;;;;;-0.68;78.18;102623.16;1670250;85;28249;-76
2022/01/24 08:05:33;;;;;;;60.33;28.42;;;;;;;-0.66;78.19;102625.26;1670274;85;25957;-76
2022/01/24 08:08:00;;;;;;;62.90;26.77;;;;;;;-0.62;78.36;102617.63;1670269;85;25986;-75
2022/01/24 08:10:26;;;;;;;58.90;27.10;;;;;;;-0.60;78.29;102617.13;1669747;84;26652;-76
2022/01/24 08:12:52;;;;;;;55.12;24.87;;;;;;;-0.58;78.19;102612.65;1669969;85;25853;-76
2022/01/24 08:15:18;;;;;;;60.17;28.90;;;;;;;-0.55;78.14;102612.95;1670548;85;27442;-76
2022/01/24 08:17:45;;;;;;;57.13;26.07;;;;;;;-0.52;78.05;102612.83;1670417;85;25864;-76
2022/01/24 08:20:13;;;;;;;60.05;25.37;;;;;;;-0.51;78.07;102611.44;1670257;84;26285;-76
2022/01/24 08:22:41;;;;;;;56.33;27.37;;;;;;;-0.49;77.98;102612.70;1670538;85;26249;-75
2022/01/24 08:25:09;;;;;;;68.22;29.82;;;;;;;-0.50;77.71;102609.22;1670588;85;25961;-76
2022/01/24 08:27:37;;;;;;;51.15;25.10;;;;;;;-0.46;77.84;102613.88;1670268;85;27648;-75
2022/01/24 08:30:09;;;;;;;52.58;24.87;;;;;;;-0.43;77.74;102617.70;1669929;84;43116;-76
2022/01/24 08:32:35;;;;;;;52.03;24.87;;;;;;;-0.42;77.66;102621.57;1670183;85;25802;-76
2022/01/24 08:35:02;;;;;;;51.35;23.85;;;;;;;-0.40;77.70;102616.23;1670315;85;25905;-75
2022/01/24 08:37:28;;;;;;;48.80;23.67;;;;;;;-0.38;77.62;102623.59;1670585;85;26493;-76
2022/01/24 08:39:56;;;;;;;48.25;23.75;;;;;;;-0.37;77.50;102616.97;1669993;84;27440;-75
2022/01/24 08:47:24;;;;;;;47.75;22.32;;;;;;;-0.31;77.46;102607.48;1670510;84;25805;-75
2022/01/24 08:49:51;;;;;;;45.25;24.20;;;;;;;-0.27;77.39;102604.23;1670245;84;25882;-76
2022/01/24 08:52:18;;;;;;;51.95;23.90;;;;;;;-0.26;77.37;102605.50;1670369;84;27521;-76
2022/01/24 08:54:45;;;;;;;48.70;23.60;;;;;;;-0.27;77.14;102610.81;1670358;85;25914;-76
2022/01/24 08:57:13;;;;;;;47.05;23.22;;;;;;;-0.26;77.01;102616.03;1670484;85;25923;-75
2022/01/24 08:59:41;;;;;;;52.33;23.05;;;;;;;-0.22;77.17;102613.66;1670171;84;25864;-76
2022/01/24 09:02:10;;;;;;;46.48;21.57;;;;;;;-0.18;77.30;102613.91;1670275;85;25771;-76
2022/01/24 09:04:36;;;;;;;43.87;21.05;;;;;;;-0.18;76.92;102613.05;1670466;85;27679;-76
2022/01/24 09:07:05;;;;;;;42.67;20.48;;;;;;;-0.18;76.99;102612.59;1670410;85;26600;-75
2022/01/24 09:09:34;;;;;;;44.38;20.70;;;;;;;-0.17;76.71;102614.28;1670446;84;25786;-76
2022/01/24 09:12:11;;;;;;;45.95;22.27;;;;;;;-0.16;76.65;102609.87;1670260;85;25859;-76
2022/01/24 09:14:35;;;;;;;43.48;20.95;;;;;;;-0.15;76.78;102610.28;1669688;84;25338;-76
2022/01/24 09:17:01;;;;;;;50.92;22.07;;;;;;;-0.10;77.00;102609.14;1670364;85;28274;-76
2022/01/24 09:19:27;;;;;;;46.02;22.55;;;;;;;-0.04;77.01;102610.63;1670146;84;26085;-76
2022/01/24 09:21:53;;;;;;;47.00;23.50;;;;;;;0.00;76.87;102608.27;1670103;85;25749;-76
2022/01/24 09:24:20;;;;;;;47.88;23.18;;;;;;;0.04;76.94;102601.07;1670027;85;26740;-75
2022/01/24 09:26:46;;;;;;;46.60;19.90;;;;;;;0.08;76.98;102604.81;1670712;85;25859;-75
2022/01/24 09:29:12;;;;;;;38.70;19.90;;;;;;;0.10;76.59;102605.59;1670271;84;27566;-76
2022/01/24 09:31:38;;;;;;;48.28;22.42;;;;;;;0.10;76.29;102600.78;1670441;85;25763;-76
2022/01/24 09:34:05;;;;;;;44.38;21.45;;;;;;;0.08;76.35;102598.23;1670013;85;25902;-76
2022/01/24 09:36:31;;;;;;;47.78;22.17;;;;;;;0.08;76.28;102602.18;1670521;85;26534;-76
2022/01/24 09:38:57;;;;;;;42.08;20.68;;;;;;;0.08;76.35;102596.05;1670376;85;25843;-75
2022/01/24 09:41:24;;;;;;;46.58;22.32;;;;;;;0.09;76.16;102605.64;1670116;84;28814;-76
2022/01/24 09:43:50;;;;;;;48.35;23.50;;;;;;;0.08;76.06;102598.69;1670122;85;25818;-75
2022/01/24 09:46:17;;;;;;;42.58;20.57;;;;;;;0.10;76.08;102604.28;1670635;84;26450;-76
2022/01/24 09:48:43;;;;;;;45.88;20.60;;;;;;;0.11;76.04;102605.14;1670488;84;26612;-75
2022/01/24 09:51:10;;;;;;;50.15;22.35;;;;;;;0.12;76.05;102608.15;1670270;84;25373;-75
2022/01/24 09:53:38;;;;;;;44.67;21.70;;;;;;;0.14;76.03;102609.80;1670288;85;27523;-75
2022/01/24 09:56:06;;;;;;;43.20;21.62;;;;;;;0.21;76.32;102603.32;1670547;85;25772;-75
2022/01/24 09:58:37;;;;;;;47.90;23.92;;;;;;;0.26;75.96;102603.94;1670310;85;26625;-75
2022/01/24 10:01:08;;;;;;;49.23;22.93;;;;;;;0.26;75.52;102601.76;1670215;84;25849;-76
2022/01/24 10:03:36;;;;;;;51.28;23.10;;;;;;;0.29;75.67;102600.31;1670143;85;25905;-76
2022/01/24 10:06:03;;;;;;;45.23;23.35;;;;;;;0.31;75.87;102591.87;1670563;85;28287;-76
2022/01/24 10:08:31;;;;;;;48.30;22.85;;;;;;;0.33;75.93;102591.33;1670508;85;25889;-76
2022/01/24 10:11:01;;;;;;;48.20;23.05;;;;;;;0.35;75.76;102586.84;1670704;84;25961;-76
2022/01/24 10:16:43;;;;;;;50.73;23.38;;;;;;;0.38;75.53;102580.11;1670623;85;26021;-75
2022/01/24 10:19:17;;;;;;;49.88;24.47;;;;;;;0.40;75.76;102576.94;1649004;86;27503;-76
2022/01/24 10:21:54;;;;;;;50.10;23.02;;;;;;;0.47;76.07;102577.05;1636657;87;26624;-76
2022/01/24 10:24:35;;;;;;;53.35;23.98;;;;;;;0.52;76.12;102568.42;1636548;87;25859;-75
2022/01/24 10:27:18;;;;;;;55.45;24.90;;;;;;;0.59;75.94;102561.94;1637852;87;26002;-75
2022/01/24 10:29:55;;;;;;;57.43;24.40;;;;;;;0.64;76.17;102555.98;1637792;86;25926;-75
2022/01/24 10:32:49;;;;;;;55.05;25.92;;;;;;;0.66;75.86;102552.31;1637830;87;27480;-75
2022/01/24 10:35:38;;;;;;;56.63;25.77;;;;;;;0.70;76.07;102554.35;1637706;87;25844;-76
2022/01/24 10:38:42;;;;;;;50.75;24.50;;;;;;;0.74;76.10;102542.72;1637908;87;25778;-76
2022/01/24 10:41:22;;;;;;;59.75;27.62;;;;;;;0.72;75.77;102540.16;1636700;86;26811;-75
2022/01/24 10:43:49;;;;;;;50.88;24.52;;;;;;;0.71;76.02;102545.03;1637330;87;25326;-77
2022/01/24 10:46:25;;;;;;;55.95;26.50;;;;;;;0.72;75.97;102537.53;1637689;87;27464;-76
2022/01/24 10:49:03;;;;;;;57.67;27.98;;;;;;;0.72;76.10;102545.44;1637882;87;25994;-76
2022/01/24 10:51:36;;;;;;;51.13;26.75;;;;;;;0.78;76.22;102541.63;1636643;86;25857;-75
2022/01/24 10:54:02;;;;;;;60.23;28.15;;;;;;;0.85;76.33;102550.09;1638148;87;26034;-75
2022/01/24 10:56:38;;;;;;;59.13;29.12;;;;;;;0.95;76.63;102536.81;1637864;87;25388;-75
2022/01/24 10:59:22;;;;;;;61.20;28.20;;;;;;;1.05;76.60;102532.30;1637975;87;28257;-75
2022/01/24 11:01:55;;;;;;;60.23;26.17;;;;;;;1.20;76.46;102534.16;1613100;87;26611;-76
2022/01/24 11:04:26;;;;;;;57.85;27.48;;;;;;;1.29;76.07;102528.86;1638015;87;26399;-75
2022/01/24 11:06:58;;;;;;;55.43;26.87;;;;;;;1.32;76.10;102519.47;1637900;87;26474;-76
2022/01/24 11:09:33;;;;;;;54.88;27.70;;;;;;;1.36;75.91;102514.41;1637937;86;26138;-75
2022/01/24 11:12:12;;;;;;;59.25;28.83;;;;;;;1.36;75.66;102517.91;1638010;87;27495;-75
2022/01/24 11:14:45;;;;;;;53.28;26.90;;;;;;;1.35;75.85;102514.87;1633886;87;25934;-75
2022/01/24 11:17:19;;;;;;;52.73;25.12;;;;;;;1.33;75.65;102514.09;1638162;87;25994;-76
2022/01/24 11:19:49;;;;;;;60.40;27.67;;;;;;;1.29;75.37;102507.28;1637416;86;26666;-76
2022/01/24 11:22:27;;;;;;;57.08;28.62;;;;;;;1.26;75.38;102504.79;1613646;87;25853;-76
2022/01/24 11:25:06;;;;;;;55.50;26.65;;;;;;;1.23;75.51;102508.92;1637045;87;27636;-76
2022/01/24 11:27:28;;;;;;;55.35;28.83;;;;;;;1.23;75.59;102507.61;1636437;86;25927;-76
2022/01/24 11:29:59;;;;;;;53.05;27.80;;;;;;;1.25;76.11;102504.42;1637587;86;25856;-76
2022/01/24 11:32:40;;;;;;;57.50;28.42;;;;;;;1.26;75.86;102508.75;1637526;87;25773;-75
2022/01/24 11:35:08;;;;;;;57.45;26.60;;;;;;;1.28;75.94;102506.05;1637872;87;26551;-76
2022/01/24 11:37:45;;;;;;;58.80;28.70;;;;;;;1.31;76.03;102502.77;1637799;87;27547;-76
2022/01/24 11:40:16;;;;;;;61.37;28.87;;;;;;;1.33;76.04;102494.30;1637335;86;25908;-76
2022/01/24 11:42:47;;;;;;;;;;;;;;;1.36;76.32;102498.11;1640228;87;26440;-76
2022/01/24 11:45:18;;;;;;;56.98;26.85;;;;;;;1.40;76.10;102493.05;1637900;87;25885;-76
2022/01/24 11:47:47;;;;;;;60.00;26.95;;;;;;;1.38;76.13;102491.42;1638011;87;25856;-75
2022/01/24 11:50:36;;;;;;;54.00;27.20;;;;;;;1.39;76.07;102490.01;1637355;86;27455;-76
2022/01/24 11:53:00;;;;;;;55.10;27.60;;;;;;;1.38;76.09;102483.03;1637281;87;25842;-76
2022/01/24 11:55:36;;;;;;;55.03;26.73;;;;;;;1.44;76.39;102488.44;1637678;86;26003;-76
2022/01/24 11:58:06;;;;;;;59.93;28.77;;;;;;;1.48;76.15;102487.34;1638112;86;26561;-76
2022/01/24 12:00:44;;;;;;;62.80;27.93;;;;;;;1.49;75.98;102482.00;1637859;86;25335;-76
2022/01/24 12:03:26;;;;;;;65.80;29.32;;;;;;;1.48;75.84;102480.28;1637722;87;28574;-76
2022/01/24 12:05:53;;;;;;;61.10;27.17;;;;;;;1.53;76.30;102472.11;1637341;87;25833;-76
2022/01/24 12:08:44;;;;;;;61.77;28.25;;;;;;;1.54;76.17;102473.34;1613841;86;25368;-76
2022/01/24 12:11:22;;;;;;;51.25;25.23;;;;;;;1.56;76.27;102480.70;1637668;86;25867;-76
2022/01/24 12:13:54;;;;;;;54.95;28.92;;;;;;;1.61;76.12;102474.32;1637659;87;25851;-76
2022/01/24 12:16:24;;;;;;;58.15;29.00;;;;;;;1.64;76.41;102464.46;1637979;87;27497;-76
2022/01/24 12:18:54;;;;;;;;;;;;;;;1.70;76.48;102460.16;1637714;87;26630;-76
2022/01/24 12:21:25;;;;;;;64.97;31.15;;;;;;;1.72;76.24;102455.64;1637498;86;25898;-76
2022/01/24 12:24:08;;;;;;;60.60;29.40;;;;;;;1.73;76.66;102454.72;1638099;87;25786;-76
2022/01/24 12:26:45;;;;;;;59.18;27.55;;;;;;;1.78;76.49;102451.79;1637437;87;25863;-75
2022/01/24 12:29:27;;;;;;;56.05;28.60;;;;;;;1.79;76.39;102451.73;1609195;87;28318;-76
2022/01/24 12:31:59;;;;;;;63.38;31.17;;;;;;;1.78;76.17;102449.15;1625884;87;25852;-76
2022/01/24 12:34:38;;;;;;;61.48;30.65;;;;;;;1.78;76.33;102446.50;1612600;87;25398;-76
2022/01/24 12:37:23;;;;;;;66.22;31.30;;;;;;;1.80;76.27;102446.81;1611194;87;25842;-76
2022/01/24 12:40:01;;;;;;;64.85;30.60;;;;;;;1.84;76.22;102440.41;1638091;87;25328;-76
2022/01/24 12:48:07;;;;;;;;;;;;;;;1.79;76.01;102438.98;1614010;88;25765;-75
2022/01/24 12:50:34;;;;;;;66.35;30.05;;;;;;;1.80;76.14;102432.28;1609823;87;25843;-76
2022/01/24 12:53:00;;;;;;;70.67;34.00;;;;;;;1.83;76.26;102434.76;1611417;88;26507;-75
2022/01/24 12:55:26;;;;;;;60.12;31.10;;;;;;;1.85;76.40;102437.31;1611361;88;27532;-76
2022/01/24 12:57:52;;;;;;;63.15;32.10;;;;;;;1.89;76.53;102442.34;1610255;88;25792;-75
2022/01/24 13:00:20;;;;;;;64.10;32.63;;;;;;;1.91;76.42;102436.49;1611152;87;25809;-76
2022/01/24 13:02:49;;;;;;;70.47;32.35;;;;;;;1.91;76.17;102431.21;1611426;88;27736;-76
2022/01/24 13:05:23;;;;;;;62.98;32.53;;;;;;;1.90;76.15;102437.91;1584654;90;25971;-75
2022/01/24 13:07:57;;;;;;;67.67;32.03;;;;;;;1.90;76.18;102433.48;1610635;88;27733;-75
2022/01/24 13:10:29;;;;;;;66.53;32.45;;;;;;;1.91;76.20;102439.59;1611165;87;25949;-76
2022/01/24 13:13:03;;;;;;;70.55;32.80;;;;;;;1.90;76.10;102433.95;1597468;89;25987;-76
2022/01/24 13:21:11;;;;;;;66.87;32.90;;;;;;;1.86;76.01;102421.36;1632294;86;27526;-76